Antares — DFJQ — position and weather

sailwx.info

Track history (hours):
 
Tides and Currents Weather Stations Pressure Air Temp Water Temp Dewpoint Dewpoint Depression Visibility Wind Speed Wind Dir Waves Ship Positions

Antares

Last reported at 2015-Sep-01 03:32 UTC. Time now 2015-Sep-01 03:54 UTC.
Position N 53°52' E 008°43'.

Length 79 m; draft 4.3 m.

Type: Ship. MMSI: 218777000.

Date/timePositionNaut miles runAvg speedWind from/ knotsBaromVisibWave heightAir tempDewpointWater temp
2015-Sep-01 03:32N 53°52' E 008°43'0 0.0
2015-Sep-01 02:32N 53°52' E 008°43'0 0.0
2015-Sep-01 01:32N 53°52' E 008°43'0 0.0
2015-Sep-01 00:32N 53°52' E 008°43'0 0.0
2015-Aug-31 23:29N 53°52' E 008°43'0 0.0
2015-Aug-31 22:32N 53°52' E 008°43'0 0.0
2015-Aug-31 21:32N 53°52' E 008°43'0 0.0
2015-Aug-31 20:32N 53°52' E 008°43'0 0.0
2015-Aug-31 19:32N 53°52' E 008°43'0 0.0
2015-Aug-31 18:32N 53°52' E 008°43'0 0.0
2015-Aug-31 17:32N 53°52' E 008°43'0 0.0
2015-Aug-31 16:32N 53°52' E 008°43'0 0.0
2015-Aug-31 15:32N 53°52' E 008°43'0 0.0
2015-Aug-31 14:32N 53°52' E 008°43'0 0.0
2015-Aug-31 13:32N 53°52' E 008°43'0 0.0
2015-Aug-31 12:32N 53°52' E 008°43'0 0.0
2015-Aug-31 11:32N 53°52' E 008°43'0 0.0
2015-Aug-31 10:32N 53°52' E 008°43'0 0.0
2015-Aug-31 09:32N 53°52' E 008°43'0 0.0
2015-Aug-31 08:32N 53°52' E 008°43'0 0.0
2015-Aug-31 07:32N 53°52' E 008°43'0 0.0
2015-Aug-31 06:32N 53°52' E 008°43'0 0.0
2015-Aug-31 05:32N 53°52' E 008°43'0 0.0
2015-Aug-31 04:32N 53°52' E 008°43'0 0.0
2015-Aug-31 03:32N 53°52' E 008°43'0 0.0
2015-Aug-31 02:32N 53°52' E 008°43'0 0.0
2015-Aug-31 01:32N 53°52' E 008°43'0 0.0
2015-Aug-31 00:32N 53°52' E 008°43'0 0.0
2015-Aug-30 23:32N 53°52' E 008°43'0 0.0
2015-Aug-30 22:32N 53°52' E 008°43'0 0.0
2015-Aug-30 21:32N 53°52' E 008°43'0 0.0
2015-Aug-30 20:32N 53°52' E 008°43'0 0.0
2015-Aug-30 19:32N 53°52' E 008°43'0 0.0
2015-Aug-30 18:32N 53°52' E 008°43'0 0.0
2015-Aug-30 17:32N 53°52' E 008°43'0 0.0
2015-Aug-30 16:32N 53°52' E 008°43'0 0.0
2015-Aug-30 15:32N 53°52' E 008°43'0 0.2
2015-Aug-30 14:33N 53°52' E 008°43'7 6.9
2015-Aug-30 13:33N 53°57' E 008°35'10 9.6
2015-Aug-30 12:33N 53°59' E 008°19'10 9.8
2015-Aug-30 11:33N 53°56' E 008°04'9 8.7
2015-Aug-30 10:33N 53°48' E 008°09'9 8.8
2015-Aug-30 09:33N 53°42' E 008°20'8 8.3
2015-Aug-30 08:33N 53°36' E 008°30'3 2.5
2015-Aug-30 07:33N 53°34' E 008°33'1 0.7
2015-Aug-30 06:33N 53°34' E 008°34'0 0.0
2015-Aug-30 05:33N 53°34' E 008°34'0 0.0
2015-Aug-30 04:33N 53°34' E 008°34'0 0.0
2015-Aug-30 03:33N 53°34' E 008°34'0 0.0
2015-Aug-30 02:33N 53°34' E 008°34'0 0.0
2015-Aug-30 01:33N 53°34' E 008°34'0 0.0
2015-Aug-30 00:33N 53°34' E 008°34'0 0.5
2015-Aug-29 23:30N 53°34' E 008°33'0 0.0
2015-Aug-29 22:33N 53°34' E 008°33'0 0.0
2015-Aug-29 21:33N 53°34' E 008°33'0 0.0
2015-Aug-29 20:33N 53°34' E 008°33'0 0.0
2015-Aug-29 19:33N 53°34' E 008°33'0 0.0
2015-Aug-29 18:33N 53°34' E 008°33'0 0.0
2015-Aug-29 17:33N 53°34' E 008°33'0 0.0
2015-Aug-29 16:33N 53°34' E 008°33'0 0.0
2015-Aug-29 15:33N 53°34' E 008°33'0 0.0
2015-Aug-29 14:33N 53°34' E 008°33'0 0.0
2015-Aug-29 13:33N 53°34' E 008°33'0 0.0
2015-Aug-29 12:33N 53°34' E 008°33'0 0.0
2015-Aug-29 11:33N 53°34' E 008°33'0 0.0
2015-Aug-29 10:33N 53°34' E 008°33'0 0.0
2015-Aug-29 09:33N 53°34' E 008°33'0 0.0
2015-Aug-29 08:33N 53°34' E 008°33'0 0.0
2015-Aug-29 07:33N 53°34' E 008°33'0 0.0
2015-Aug-29 06:33N 53°34' E 008°33'0 0.0
2015-Aug-29 05:33N 53°34' E 008°33'0 0.0
2015-Aug-29 04:33N 53°34' E 008°33'0 0.0
2015-Aug-29 03:33N 53°34' E 008°33'0 0.0
2015-Aug-29 02:30N 53°34' E 008°33'0 0.0
2015-Aug-29 01:33N 53°34' E 008°33'0 0.0
2015-Aug-29 00:33N 53°34' E 008°33'0 0.0
2015-Aug-28 23:33N 53°34' E 008°33'0 0.0
2015-Aug-28 22:33N 53°34' E 008°33'0 0.0
2015-Aug-28 21:33N 53°34' E 008°33'0 0.0
2015-Aug-28 20:33N 53°34' E 008°33'0 0.0
2015-Aug-28 19:33N 53°34' E 008°33'0 0.0
2015-Aug-28 18:33N 53°34' E 008°33'0 0.0
2015-Aug-28 17:33N 53°34' E 008°33'0 0.0
2015-Aug-28 16:33N 53°34' E 008°33'0 0.0
2015-Aug-28 15:33N 53°34' E 008°33'0 0.0
2015-Aug-28 14:33N 53°34' E 008°33'0 0.0
2015-Aug-28 13:33N 53°34' E 008°33'0 0.0
2015-Aug-28 12:33N 53°34' E 008°33'0 0.0
2015-Aug-28 11:33N 53°34' E 008°33'0 0.0
2015-Aug-28 10:33N 53°34' E 008°33'0 0.0
2015-Aug-28 09:30N 53°34' E 008°33'0 0.0
2015-Aug-28 08:33N 53°34' E 008°33'0 0.0
2015-Aug-28 07:33N 53°34' E 008°33'0 0.0
2015-Aug-28 06:33N 53°34' E 008°33'0 0.0
2015-Aug-28 05:33N 53°34' E 008°33'0 0.0
2015-Aug-28 04:33N 53°34' E 008°33'0 0.0
2015-Aug-28 03:33N 53°34' E 008°33'0 0.0
2015-Aug-28 02:33N 53°34' E 008°33'0 0.0
2015-Aug-28 01:33N 53°34' E 008°33'0 0.0
2015-Aug-28 00:33N 53°34' E 008°33'0 0.0
2015-Aug-27 23:33N 53°34' E 008°33'0 0.0
2015-Aug-27 22:33N 53°34' E 008°33'0 0.4
2015-Aug-27 21:31N 53°34' E 008°33'3 3.3
2015-Aug-27 20:34N 53°31' E 008°33'0 0.2
2015-Aug-27 19:32N 53°31' E 008°32'0 0.0
2015-Aug-27 18:32N 53°31' E 008°32'0 0.0
2015-Aug-27 17:32N 53°31' E 008°32'0 0.0
2015-Aug-27 16:32N 53°31' E 008°32'0 0.0
2015-Aug-27 15:32N 53°31' E 008°32'0 0.0
2015-Aug-27 14:32N 53°31' E 008°32'0 0.0
2015-Aug-27 13:32N 53°31' E 008°32'0 0.0
2015-Aug-27 12:32N 53°31' E 008°32'0 0.0
2015-Aug-27 11:32N 53°31' E 008°32'0 0.0
2015-Aug-27 10:32N 53°31' E 008°32'0 0.0
2015-Aug-27 09:32N 53°31' E 008°32'0 0.0
2015-Aug-27 08:32N 53°31' E 008°32'0 0.0
2015-Aug-27 07:32N 53°31' E 008°32'0 0.0
2015-Aug-27 06:32N 53°31' E 008°32'4 3.7
2015-Aug-27 05:33N 53°35' E 008°32'1211.7
2015-Aug-27 04:33N 53°43' E 008°17'1 1.2
2015-Aug-27 03:32N 53°43' E 008°16'0 0.0
2015-Aug-27 02:32N 53°43' E 008°16'0 0.0
2015-Aug-27 01:32N 53°43' E 008°16'0 0.0
2015-Aug-27 00:32N 53°43' E 008°16'0 0.0
2015-Aug-26 23:32N 53°43' E 008°16'0 0.1
2015-Aug-26 22:32N 53°43' E 008°16'0 0.0
2015-Aug-26 21:32N 53°43' E 008°16'0 0.1
2015-Aug-26 20:32N 53°43' E 008°16'0 0.1
2015-Aug-26 19:32N 53°43' E 008°16'6 6.3
2015-Aug-26 18:33N 53°48' E 008°08'1110.6
2015-Aug-26 17:33N 53°50' E 007°51'1111.3
2015-Aug-26 16:33N 53°49' E 007°32'1211.2
2015-Aug-26 15:31N 53°47' E 007°12'1111.0
2015-Aug-26 14:33N 53°45' E 006°55'1110.7
2015-Aug-26 13:33N 53°42' E 006°37'9 9.0
2015-Aug-26 12:33N 53°37' E 006°25'1010.0
2015-Aug-26 11:32N 53°33' E 006°41'8 8.4
2015-Aug-26 10:33N 53°27' E 006°50'0 0.0
2015-Aug-26 09:32N 53°27' E 006°50'0 0.0
2015-Aug-26 08:32N 53°27' E 006°50'0 0.0
2015-Aug-26 07:32N 53°27' E 006°50'0 0.0
2015-Aug-26 06:33N 53°27' E 006°50'3 3.4
2015-Aug-26 05:32N 53°30' E 006°46'0 0.0
2015-Aug-26 04:32N 53°30' E 006°46'0 0.0
2015-Aug-26 03:32N 53°30' E 006°46'0 0.0
2015-Aug-26 02:32N 53°30' E 006°46'0 0.0
2015-Aug-26 01:32N 53°30' E 006°46'0 0.2
2015-Aug-26 00:32N 53°30' E 006°46'0 0.1
2015-Aug-25 23:32N 53°30' E 006°46'0 0.0
2015-Aug-25 22:32N 53°30' E 006°46'0 0.0
2015-Aug-25 21:29N 53°30' E 006°46'0 0.0
2015-Aug-25 20:29N 53°30' E 006°46'0 0.0
2015-Aug-25 19:32N 53°30' E 006°46'0 0.1
2015-Aug-25 18:32N 53°30' E 006°46'0 0.1
2015-Aug-25 17:32N 53°30' E 006°46'1 1.0
2015-Aug-25 16:34N 53°29' E 006°48'8 8.5
2015-Aug-25 15:34N 53°35' E 006°37'1110.8
2015-Aug-25 14:34N 53°37' E 006°19'1110.7
2015-Aug-25 13:33N 53°40' E 006°02'1110.6
2015-Aug-25 12:34N 53°37' E 005°45'1110.9
2015-Aug-25 11:34N 53°33' E 005°27'1110.8
2015-Aug-25 10:34N 53°30' E 005°10'1010.5
2015-Aug-25 09:34N 53°26' E 004°54'10 9.5
2015-Aug-25 08:34N 53°21' E 004°41'18 9.1
2015-Aug-25 06:32N 53°04' E 004°27'29 8.5
2015-Aug-25 03:11N 52°39' E 004°03'6 8.8
2015-Aug-25 02:29N 52°34' E 003°58'8 9.0
2015-Aug-25 01:33N 52°26' E 003°53'9 9.3
2015-Aug-25 00:33N 52°17' E 003°52'10 9.8
2015-Aug-24 23:33N 52°08' E 003°54'8 7.6
2015-Aug-24 22:34N 52°01' E 003°60'10 9.5
2015-Aug-24 21:34N 51°56' E 004°13'5 4.7
2015-Aug-24 20:34N 51°53' E 004°19'0 0.0
2015-Aug-24 19:31N 51°53' E 004°19'0 0.0
2015-Aug-24 18:22N 51°53' E 004°19'0 0.0
2015-Aug-24 17:31N 51°53' E 004°19'0 0.0
2015-Aug-24 16:31N 51°53' E 004°19'0 0.0
2015-Aug-24 15:31N 51°53' E 004°19'0 0.0
2015-Aug-24 14:31N 51°53' E 004°19'0 0.0
2015-Aug-24 13:31N 51°53' E 004°19'0 0.0
2015-Aug-24 12:31N 51°53' E 004°19'0 0.0
2015-Aug-24 11:31N 51°53' E 004°19'0 0.0
2015-Aug-24 10:19N 51°53' E 004°19'0 0.0
2015-Aug-24 09:19N 51°53' E 004°19'0 0.0
2015-Aug-24 08:31N 51°53' E 004°19'0 0.0
2015-Aug-24 07:31N 51°53' E 004°19'0 0.0
2015-Aug-24 06:31N 51°53' E 004°19'0 0.0
2015-Aug-24 05:28N 51°53' E 004°19'0 0.0
2015-Aug-24 04:28N 51°53' E 004°19'0 0.0
2015-Aug-24 03:31N 51°53' E 004°19'0 0.0
2015-Aug-24 02:31N 51°53' E 004°19'0 0.0
2015-Aug-24 01:31N 51°53' E 004°19'0 0.0
2015-Aug-24 00:31N 51°53' E 004°19'0 0.0
2015-Aug-23 23:31N 51°53' E 004°19'0 0.0
2015-Aug-23 22:31N 51°53' E 004°19'0 0.1
2015-Aug-23 21:34N 51°53' E 004°19'7 7.4
2015-Aug-23 20:33N 51°57' E 004°09'1111.3
2015-Aug-23 19:34N 51°60' E 003°52'9 9.1
2015-Aug-23 18:33N 51°56' E 003°38'1 0.3
2015-Aug-23 15:21N 51°55' E 003°38'0 0.0
2015-Aug-23 14:33N 51°55' E 003°38'0 0.0
2015-Aug-23 13:21N 51°55' E 003°38'0 0.0
2015-Aug-23 12:33N 51°55' E 003°38'3 2.8
2015-Aug-23 11:33N 51°56' E 003°33'34 9.7
2015-Aug-23 08:05N 51°46' E 002°41'810.8
2015-Aug-23 07:21N 51°41' E 002°32'911.2
2015-Aug-23 06:33N 51°34' E 002°23'1111.4
2015-Aug-23 05:33N 51°25' E 002°12'1211.8
2015-Aug-23 04:34N 51°15' E 002°04'1211.6
2015-Aug-23 03:33N 51°08' E 001°49'1211.5
2015-Aug-23 02:33N 51°00' E 001°35'1010.5
2015-Aug-23 01:33N 50°52' E 001°25'1010.3
2015-Aug-23 00:33N 50°42' E 001°20'1010.0
2015-Aug-22 23:33N 50°36' E 001°08'10 9.9
2015-Aug-22 22:33N 50°31' E 000°55'10 9.6
2015-Aug-22 21:33N 50°28' E 000°40'9 9.1
2015-Aug-22 20:33N 50°26' E 000°26'19 8.4
2015-Aug-22 18:15N 50°25' W 000°04'710.7
2015-Aug-22 17:33N 50°32' W 000°08'1310.9
2015-Aug-22 16:23N 50°44' W 000°14'4 4.1
2015-Aug-22 15:30N 50°48' W 000°15'0 0.0
2015-Aug-22 14:33N 50°48' W 000°15'0 0.0
2015-Aug-22 13:30N 50°48' W 000°15'0 0.0
2015-Aug-22 12:21N 50°48' W 000°15'0 0.0
2015-Aug-22 11:33N 50°48' W 000°15'0 0.0
2015-Aug-22 10:33N 50°48' W 000°15'0 0.0
2015-Aug-22 09:30N 50°48' W 000°15'0 0.0
2015-Aug-22 06:24N 50°48' W 000°15'0 0.0
2015-Aug-22 05:24N 50°48' W 000°15'0 0.0
2015-Aug-22 04:30N 50°48' W 000°15'2 2.4
2015-Aug-22 03:34N 50°50' W 000°14'  
Track history (hours):
 
Tides and Currents Weather Stations Pressure Air Temp Water Temp Dewpoint Dewpoint Depression Visibility Wind Speed Wind Dir Waves Ship Positions

Antares

Last reported at 2015-Sep-01 03:32 UTC. Time now 2015-Sep-01 03:54 UTC.
Position N 53°52' E 008°43'.

Length 79 m; draft 4.3 m.

Type: Ship. MMSI: 218777000.

Date/timePositionNaut miles runAvg speedWind from/ knotsBaromVisibWave heightAir tempDewpointWater temp
2015-Sep-01 03:32N 53°52' E 008°43'0 0.0
2015-Sep-01 02:32N 53°52' E 008°43'0 0.0
2015-Sep-01 01:32N 53°52' E 008°43'0 0.0
2015-Sep-01 00:32N 53°52' E 008°43'0 0.0
2015-Aug-31 23:29N 53°52' E 008°43'0 0.0
2015-Aug-31 22:32N 53°52' E 008°43'0 0.0
2015-Aug-31 21:32N 53°52' E 008°43'0 0.0
2015-Aug-31 20:32N 53°52' E 008°43'0 0.0
2015-Aug-31 19:32N 53°52' E 008°43'0 0.0
2015-Aug-31 18:32N 53°52' E 008°43'0 0.0
2015-Aug-31 17:32N 53°52' E 008°43'0 0.0
2015-Aug-31 16:32N 53°52' E 008°43'0 0.0
2015-Aug-31 15:32N 53°52' E 008°43'0 0.0
2015-Aug-31 14:32N 53°52' E 008°43'0 0.0
2015-Aug-31 13:32N 53°52' E 008°43'0 0.0
2015-Aug-31 12:32N 53°52' E 008°43'0 0.0
2015-Aug-31 11:32N 53°52' E 008°43'0 0.0
2015-Aug-31 10:32N 53°52' E 008°43'0 0.0
2015-Aug-31 09:32N 53°52' E 008°43'0 0.0
2015-Aug-31 08:32N 53°52' E 008°43'0 0.0
2015-Aug-31 07:32N 53°52' E 008°43'0 0.0
2015-Aug-31 06:32N 53°52' E 008°43'0 0.0
2015-Aug-31 05:32N 53°52' E 008°43'0 0.0
2015-Aug-31 04:32N 53°52' E 008°43'0 0.0
2015-Aug-31 03:32N 53°52' E 008°43'0 0.0
2015-Aug-31 02:32N 53°52' E 008°43'0 0.0
2015-Aug-31 01:32N 53°52' E 008°43'0 0.0
2015-Aug-31 00:32N 53°52' E 008°43'0 0.0
2015-Aug-30 23:32N 53°52' E 008°43'0 0.0
2015-Aug-30 22:32N 53°52' E 008°43'0 0.0
2015-Aug-30 21:32N 53°52' E 008°43'0 0.0
2015-Aug-30 20:32N 53°52' E 008°43'0 0.0
2015-Aug-30 19:32N 53°52' E 008°43'0 0.0
2015-Aug-30 18:32N 53°52' E 008°43'0 0.0
2015-Aug-30 17:32N 53°52' E 008°43'0 0.0
2015-Aug-30 16:32N 53°52' E 008°43'0 0.0
2015-Aug-30 15:32N 53°52' E 008°43'0 0.2
2015-Aug-30 14:33N 53°52' E 008°43'7 6.9
2015-Aug-30 13:33N 53°57' E 008°35'10 9.6
2015-Aug-30 12:33N 53°59' E 008°19'10 9.8
2015-Aug-30 11:33N 53°56' E 008°04'9 8.7
2015-Aug-30 10:33N 53°48' E 008°09'9 8.8
2015-Aug-30 09:33N 53°42' E 008°20'8 8.3
2015-Aug-30 08:33N 53°36' E 008°30'3 2.5
2015-Aug-30 07:33N 53°34' E 008°33'1 0.7
2015-Aug-30 06:33N 53°34' E 008°34'0 0.0
2015-Aug-30 05:33N 53°34' E 008°34'0 0.0
2015-Aug-30 04:33N 53°34' E 008°34'0 0.0
2015-Aug-30 03:33N 53°34' E 008°34'0 0.0
2015-Aug-30 02:33N 53°34' E 008°34'0 0.0
2015-Aug-30 01:33N 53°34' E 008°34'0 0.0
2015-Aug-30 00:33N 53°34' E 008°34'0 0.5
2015-Aug-29 23:30N 53°34' E 008°33'0 0.0
2015-Aug-29 22:33N 53°34' E 008°33'0 0.0
2015-Aug-29 21:33N 53°34' E 008°33'0 0.0
2015-Aug-29 20:33N 53°34' E 008°33'0 0.0
2015-Aug-29 19:33N 53°34' E 008°33'0 0.0
2015-Aug-29 18:33N 53°34' E 008°33'0 0.0
2015-Aug-29 17:33N 53°34' E 008°33'0 0.0
2015-Aug-29 16:33N 53°34' E 008°33'0 0.0
2015-Aug-29 15:33N 53°34' E 008°33'0 0.0
2015-Aug-29 14:33N 53°34' E 008°33'0 0.0
2015-Aug-29 13:33N 53°34' E 008°33'0 0.0
2015-Aug-29 12:33N 53°34' E 008°33'0 0.0
2015-Aug-29 11:33N 53°34' E 008°33'0 0.0
2015-Aug-29 10:33N 53°34' E 008°33'0 0.0
2015-Aug-29 09:33N 53°34' E 008°33'0 0.0
2015-Aug-29 08:33N 53°34' E 008°33'0 0.0
2015-Aug-29 07:33N 53°34' E 008°33'0 0.0
2015-Aug-29 06:33N 53°34' E 008°33'0 0.0
2015-Aug-29 05:33N 53°34' E 008°33'0 0.0
2015-Aug-29 04:33N 53°34' E 008°33'0 0.0
2015-Aug-29 03:33N 53°34' E 008°33'0 0.0
2015-Aug-29 02:30N 53°34' E 008°33'0 0.0
2015-Aug-29 01:33N 53°34' E 008°33'0 0.0
2015-Aug-29 00:33N 53°34' E 008°33'0 0.0
2015-Aug-28 23:33N 53°34' E 008°33'0 0.0
2015-Aug-28 22:33N 53°34' E 008°33'0 0.0
2015-Aug-28 21:33N 53°34' E 008°33'0 0.0
2015-Aug-28 20:33N 53°34' E 008°33'0 0.0
2015-Aug-28 19:33N 53°34' E 008°33'0 0.0
2015-Aug-28 18:33N 53°34' E 008°33'0 0.0
2015-Aug-28 17:33N 53°34' E 008°33'0 0.0
2015-Aug-28 16:33N 53°34' E 008°33'0 0.0
2015-Aug-28 15:33N 53°34' E 008°33'0 0.0
2015-Aug-28 14:33N 53°34' E 008°33'0 0.0
2015-Aug-28 13:33N 53°34' E 008°33'0 0.0
2015-Aug-28 12:33N 53°34' E 008°33'0 0.0
2015-Aug-28 11:33N 53°34' E 008°33'0 0.0
2015-Aug-28 10:33N 53°34' E 008°33'0 0.0
2015-Aug-28 09:30N 53°34' E 008°33'0 0.0
2015-Aug-28 08:33N 53°34' E 008°33'0 0.0
2015-Aug-28 07:33N 53°34' E 008°33'0 0.0
2015-Aug-28 06:33N 53°34' E 008°33'0 0.0
2015-Aug-28 05:33N 53°34' E 008°33'0 0.0
2015-Aug-28 04:33N 53°34' E 008°33'0 0.0
2015-Aug-28 03:33N 53°34' E 008°33'0 0.0
2015-Aug-28 02:33N 53°34' E 008°33'0 0.0
2015-Aug-28 01:33N 53°34' E 008°33'0 0.0
2015-Aug-28 00:33N 53°34' E 008°33'0 0.0
2015-Aug-27 23:33N 53°34' E 008°33'0 0.0
2015-Aug-27 22:33N 53°34' E 008°33'0 0.4
2015-Aug-27 21:31N 53°34' E 008°33'3 3.3
2015-Aug-27 20:34N 53°31' E 008°33'0 0.2
2015-Aug-27 19:32N 53°31' E 008°32'0 0.0
2015-Aug-27 18:32N 53°31' E 008°32'0 0.0
2015-Aug-27 17:32N 53°31' E 008°32'0 0.0
2015-Aug-27 16:32N 53°31' E 008°32'0 0.0
2015-Aug-27 15:32N 53°31' E 008°32'0 0.0
2015-Aug-27 14:32N 53°31' E 008°32'0 0.0
2015-Aug-27 13:32N 53°31' E 008°32'0 0.0
2015-Aug-27 12:32N 53°31' E 008°32'0 0.0
2015-Aug-27 11:32N 53°31' E 008°32'0 0.0
2015-Aug-27 10:32N 53°31' E 008°32'0 0.0
2015-Aug-27 09:32N 53°31' E 008°32'0 0.0
2015-Aug-27 08:32N 53°31' E 008°32'0 0.0
2015-Aug-27 07:32N 53°31' E 008°32'0 0.0
2015-Aug-27 06:32N 53°31' E 008°32'4 3.7
2015-Aug-27 05:33N 53°35' E 008°32'1211.7
2015-Aug-27 04:33N 53°43' E 008°17'1 1.2
2015-Aug-27 03:32N 53°43' E 008°16'0 0.0
2015-Aug-27 02:32N 53°43' E 008°16'0 0.0
2015-Aug-27 01:32N 53°43' E 008°16'0 0.0
2015-Aug-27 00:32N 53°43' E 008°16'0 0.0
2015-Aug-26 23:32N 53°43' E 008°16'0 0.1
2015-Aug-26 22:32N 53°43' E 008°16'0 0.0
2015-Aug-26 21:32N 53°43' E 008°16'0 0.1
2015-Aug-26 20:32N 53°43' E 008°16'0 0.1
2015-Aug-26 19:32N 53°43' E 008°16'6 6.3
2015-Aug-26 18:33N 53°48' E 008°08'1110.6
2015-Aug-26 17:33N 53°50' E 007°51'1111.3
2015-Aug-26 16:33N 53°49' E 007°32'1211.2
2015-Aug-26 15:31N 53°47' E 007°12'1111.0
2015-Aug-26 14:33N 53°45' E 006°55'1110.7
2015-Aug-26 13:33N 53°42' E 006°37'9 9.0
2015-Aug-26 12:33N 53°37' E 006°25'1010.0
2015-Aug-26 11:32N 53°33' E 006°41'8 8.4
2015-Aug-26 10:33N 53°27' E 006°50'0 0.0
2015-Aug-26 09:32N 53°27' E 006°50'0 0.0
2015-Aug-26 08:32N 53°27' E 006°50'0 0.0
2015-Aug-26 07:32N 53°27' E 006°50'0 0.0
2015-Aug-26 06:33N 53°27' E 006°50'3 3.4
2015-Aug-26 05:32N 53°30' E 006°46'0 0.0
2015-Aug-26 04:32N 53°30' E 006°46'0 0.0
2015-Aug-26 03:32N 53°30' E 006°46'0 0.0
2015-Aug-26 02:32N 53°30' E 006°46'0 0.0
2015-Aug-26 01:32N 53°30' E 006°46'0 0.2
2015-Aug-26 00:32N 53°30' E 006°46'0 0.1
2015-Aug-25 23:32N 53°30' E 006°46'0 0.0
2015-Aug-25 22:32N 53°30' E 006°46'0 0.0
2015-Aug-25 21:29N 53°30' E 006°46'0 0.0
2015-Aug-25 20:29N 53°30' E 006°46'0 0.0
2015-Aug-25 19:32N 53°30' E 006°46'0 0.1
2015-Aug-25 18:32N 53°30' E 006°46'0 0.1
2015-Aug-25 17:32N 53°30' E 006°46'1 1.0
2015-Aug-25 16:34N 53°29' E 006°48'8 8.5
2015-Aug-25 15:34N 53°35' E 006°37'1110.8
2015-Aug-25 14:34N 53°37' E 006°19'1110.7
2015-Aug-25 13:33N 53°40' E 006°02'1110.6
2015-Aug-25 12:34N 53°37' E 005°45'1110.9
2015-Aug-25 11:34N 53°33' E 005°27'1110.8
2015-Aug-25 10:34N 53°30' E 005°10'1010.5
2015-Aug-25 09:34N 53°26' E 004°54'10 9.5
2015-Aug-25 08:34N 53°21' E 004°41'18 9.1
2015-Aug-25 06:32N 53°04' E 004°27'29 8.5
2015-Aug-25 03:11N 52°39' E 004°03'6 8.8
2015-Aug-25 02:29N 52°34' E 003°58'8 9.0
2015-Aug-25 01:33N 52°26' E 003°53'9 9.3
2015-Aug-25 00:33N 52°17' E 003°52'10 9.8
2015-Aug-24 23:33N 52°08' E 003°54'8 7.6
2015-Aug-24 22:34N 52°01' E 003°60'10 9.5
2015-Aug-24 21:34N 51°56' E 004°13'5 4.7
2015-Aug-24 20:34N 51°53' E 004°19'0 0.0
2015-Aug-24 19:31N 51°53' E 004°19'0 0.0
2015-Aug-24 18:22N 51°53' E 004°19'0 0.0
2015-Aug-24 17:31N 51°53' E 004°19'0 0.0
2015-Aug-24 16:31N 51°53' E 004°19'0 0.0
2015-Aug-24 15:31N 51°53' E 004°19'0 0.0
2015-Aug-24 14:31N 51°53' E 004°19'0 0.0
2015-Aug-24 13:31N 51°53' E 004°19'0 0.0
2015-Aug-24 12:31N 51°53' E 004°19'0 0.0
2015-Aug-24 11:31N 51°53' E 004°19'0 0.0
2015-Aug-24 10:19N 51°53' E 004°19'0 0.0
2015-Aug-24 09:19N 51°53' E 004°19'0 0.0
2015-Aug-24 08:31N 51°53' E 004°19'0 0.0
2015-Aug-24 07:31N 51°53' E 004°19'0 0.0
2015-Aug-24 06:31N 51°53' E 004°19'0 0.0
2015-Aug-24 05:28N 51°53' E 004°19'0 0.0
2015-Aug-24 04:28N 51°53' E 004°19'0 0.0
2015-Aug-24 03:31N 51°53' E 004°19'0 0.0
2015-Aug-24 02:31N 51°53' E 004°19'0 0.0
2015-Aug-24 01:31N 51°53' E 004°19'0 0.0
2015-Aug-24 00:31N 51°53' E 004°19'0 0.0
2015-Aug-23 23:31N 51°53' E 004°19'0 0.0
2015-Aug-23 22:31N 51°53' E 004°19'0 0.1
2015-Aug-23 21:34N 51°53' E 004°19'7 7.4
2015-Aug-23 20:33N 51°57' E 004°09'1111.3
2015-Aug-23 19:34N 51°60' E 003°52'9 9.1
2015-Aug-23 18:33N 51°56' E 003°38'1 0.3
2015-Aug-23 15:21N 51°55' E 003°38'0 0.0
2015-Aug-23 14:33N 51°55' E 003°38'0 0.0
2015-Aug-23 13:21N 51°55' E 003°38'0 0.0
2015-Aug-23 12:33N 51°55' E 003°38'3 2.8
2015-Aug-23 11:33N 51°56' E 003°33'34 9.7
2015-Aug-23 08:05N 51°46' E 002°41'810.8
2015-Aug-23 07:21N 51°41' E 002°32'911.2
2015-Aug-23 06:33N 51°34' E 002°23'1111.4
2015-Aug-23 05:33N 51°25' E 002°12'1211.8
2015-Aug-23 04:34N 51°15' E 002°04'1211.6
2015-Aug-23 03:33N 51°08' E 001°49'1211.5
2015-Aug-23 02:33N 51°00' E 001°35'1010.5
2015-Aug-23 01:33N 50°52' E 001°25'1010.3
2015-Aug-23 00:33N 50°42' E 001°20'1010.0
2015-Aug-22 23:33N 50°36' E 001°08'10 9.9
2015-Aug-22 22:33N 50°31' E 000°55'10 9.6
2015-Aug-22 21:33N 50°28' E 000°40'9 9.1
2015-Aug-22 20:33N 50°26' E 000°26'19 8.4
2015-Aug-22 18:15N 50°25' W 000°04'710.7
2015-Aug-22 17:33N 50°32' W 000°08'1310.9
2015-Aug-22 16:23N 50°44' W 000°14'4 4.1
2015-Aug-22 15:30N 50°48' W 000°15'0 0.0
2015-Aug-22 14:33N 50°48' W 000°15'0 0.0
2015-Aug-22 13:30N 50°48' W 000°15'0 0.0
2015-Aug-22 12:21N 50°48' W 000°15'0 0.0
2015-Aug-22 11:33N 50°48' W 000°15'0 0.0
2015-Aug-22 10:33N 50°48' W 000°15'0 0.0
2015-Aug-22 09:30N 50°48' W 000°15'0 0.0
2015-Aug-22 06:24N 50°48' W 000°15'0 0.0
2015-Aug-22 05:24N 50°48' W 000°15'0 0.0
2015-Aug-22 04:30N 50°48' W 000°15'2 2.4
2015-Aug-22 03:34N 50°50' W 000°14'  

Dump ship's entire track history